sensor_id;sensor_type;location;lat;lon;timestamp;pressure;altitude;pressure_sealevel;temperature;humidity
59158;BME280;44940;55.060;73.168;2022-08-19T00:01:56;101296.78;;;8.98;95.66
59158;BME280;44940;55.060;73.168;2022-08-19T00:04:28;101288.97;;;8.91;95.61
59158;BME280;44940;55.060;73.168;2022-08-19T00:06:55;101300.38;;;8.98;95.04
59158;BME280;44940;55.060;73.168;2022-08-19T00:09:24;101300.53;;;8.93;95.54
59158;BME280;44940;55.060;73.168;2022-08-19T00:11:52;101296.94;;;8.93;95.44
59158;BME280;44940;55.060;73.168;2022-08-19T00:14:19;101311.25;;;8.95;94.99
59158;BME280;44940;55.060;73.168;2022-08-19T00:16:48;101303.44;;;8.97;95.37
59158;BME280;44940;55.060;73.168;2022-08-19T00:19:16;101311.44;;;8.98;95.52
59158;BME280;44940;55.060;73.168;2022-08-19T00:21:43;101305.75;;;9.03;95.39
59158;BME280;44940;55.060;73.168;2022-08-19T00:24:12;101304.28;;;8.97;95.10
59158;BME280;44940;55.060;73.168;2022-08-19T00:26:43;101298.09;;;9.00;95.22
59158;BME280;44940;55.060;73.168;2022-08-19T00:29:13;101311.09;;;9.00;95.78
59158;BME280;44940;55.060;73.168;2022-08-19T00:31:41;101307.06;;;9.06;94.82
59158;BME280;44940;55.060;73.168;2022-08-19T00:34:10;101307.75;;;9.11;95.05
59158;BME280;44940;55.060;73.168;2022-08-19T00:36:38;101301.72;;;9.09;94.72
59158;BME280;44940;55.060;73.168;2022-08-19T00:39:05;101308.19;;;9.05;95.10
59158;BME280;44940;55.060;73.168;2022-08-19T00:41:33;101309.16;;;9.00;95.00
59158;BME280;44940;55.060;73.168;2022-08-19T00:44:04;101306.47;;;8.87;95.35
59158;BME280;44940;55.060;73.168;2022-08-19T00:46:32;101307.03;;;8.97;95.60
59158;BME280;44940;55.060;73.168;2022-08-19T00:49:00;101304.13;;;9.02;95.57
59158;BME280;44940;55.060;73.168;2022-08-19T00:51:30;101314.41;;;9.10;95.58
59158;BME280;44940;55.060;73.168;2022-08-19T00:54:00;101304.34;;;9.15;95.96
59158;BME280;44940;55.060;73.168;2022-08-19T00:56:29;101315.22;;;9.20;95.51
59158;BME280;44940;55.060;73.168;2022-08-19T00:58:58;101297.34;;;9.17;95.33
59158;BME280;44940;55.060;73.168;2022-08-19T01:01:27;101308.25;;;9.22;95.40
59158;BME280;44940;55.060;73.168;2022-08-19T01:03:54;101309.44;;;9.30;95.51
59158;BME280;44940;55.060;73.168;2022-08-19T01:06:21;101304.06;;;9.33;95.14
59158;BME280;44940;55.060;73.168;2022-08-19T01:08:48;101302.28;;;9.29;96.33
59158;BME280;44940;55.060;73.168;2022-08-19T01:11:15;101290.69;;;9.18;95.66
59158;BME280;44940;55.060;73.168;2022-08-19T01:13:43;101298.50;;;9.25;95.89
59158;BME280;44940;55.060;73.168;2022-08-19T01:16:12;101285.81;;;9.24;95.84
59158;BME280;44940;55.060;73.168;2022-08-19T01:18:42;101294.78;;;9.29;95.64
59158;BME280;44940;55.060;73.168;2022-08-19T01:21:18;101297.06;;;9.27;96.18
59158;BME280;44940;55.060;73.168;2022-08-19T01:23:49;101286.47;;;9.21;95.91
59158;BME280;44940;55.060;73.168;2022-08-19T01:26:18;101286.16;;;9.31;95.92
59158;BME280;44940;55.060;73.168;2022-08-19T01:28:48;101288.94;;;9.31;95.89
59158;BME280;44940;55.060;73.168;2022-08-19T01:31:19;101286.16;;;9.31;95.44
59158;BME280;44940;55.060;73.168;2022-08-19T01:33:48;101289.44;;;9.33;95.99
59158;BME280;44940;55.060;73.168;2022-08-19T01:36:22;101283.72;;;9.29;95.63
59158;BME280;44940;55.060;73.168;2022-08-19T01:38:51;101292.50;;;9.40;95.25
59158;BME280;44940;55.060;73.168;2022-08-19T01:41:19;101289.75;;;9.40;95.31
59158;BME280;44940;55.060;73.168;2022-08-19T01:43:46;101295.63;;;9.47;95.46
59158;BME280;44940;55.060;73.168;2022-08-19T01:46:13;101289.47;;;9.50;94.62
59158;BME280;44940;55.060;73.168;2022-08-19T01:48:42;101281.66;;;9.52;93.81
59158;BME280;44940;55.060;73.168;2022-08-19T01:51:11;101288.81;;;9.53;93.40
59158;BME280;44940;55.060;73.168;2022-08-19T01:53:38;101289.78;;;9.57;93.16
59158;BME280;44940;55.060;73.168;2022-08-19T01:56:08;101278.72;;;9.57;93.04
59158;BME280;44940;55.060;73.168;2022-08-19T01:58:38;101289.28;;;9.64;92.40
59158;BME280;44940;55.060;73.168;2022-08-19T02:01:08;101288.16;;;9.56;92.43
59158;BME280;44940;55.060;73.168;2022-08-19T02:03:35;101269.13;;;9.46;92.64
59158;BME280;44940;55.060;73.168;2022-08-19T02:06:03;101284.91;;;9.54;92.92
59158;BME280;44940;55.060;73.168;2022-08-19T02:08:33;101285.22;;;9.61;92.03
59158;BME280;44940;55.060;73.168;2022-08-19T02:11:01;101284.41;;;9.61;91.87
59158;BME280;44940;55.060;73.168;2022-08-19T02:13:31;101267.50;;;9.45;92.29
59158;BME280;44940;55.060;73.168;2022-08-19T02:15:58;101280.03;;;9.51;92.66
59158;BME280;44940;55.060;73.168;2022-08-19T02:18:25;101278.41;;;9.59;93.32
59158;BME280;44940;55.060;73.168;2022-08-19T02:20:53;101276.94;;;9.61;93.11
59158;BME280;44940;55.060;73.168;2022-08-19T02:23:20;101283.13;;;9.67;93.10
59158;BME280;44940;55.060;73.168;2022-08-19T02:25:48;101275.63;;;9.59;93.52
59158;BME280;44940;55.060;73.168;2022-08-19T02:28:15;101280.19;;;9.63;93.32
59158;BME280;44940;55.060;73.168;2022-08-19T02:30:44;101285.91;;;9.76;93.18
59158;BME280;44940;55.060;73.168;2022-08-19T02:33:11;101293.56;;;9.70;92.82
59158;BME280;44940;55.060;73.168;2022-08-19T02:35:41;101284.91;;;9.71;92.91
59158;BME280;44940;55.060;73.168;2022-08-19T02:38:08;101286.72;;;9.67;92.70
59158;BME280;44940;55.060;73.168;2022-08-19T02:40:56;101295.50;;;9.69;93.29
59158;BME280;44940;55.060;73.168;2022-08-19T02:43:24;101296.16;;;9.75;92.25
59158;BME280;44940;55.060;73.168;2022-08-19T02:45:54;101292.25;;;9.85;92.04
59158;BME280;44940;55.060;73.168;2022-08-19T02:48:22;101287.53;;;9.77;92.10
59158;BME280;44940;55.060;73.168;2022-08-19T02:50:51;101297.28;;;9.83;91.77
59158;BME280;44940;55.060;73.168;2022-08-19T02:53:27;101288.84;;;9.88;92.78
59158;BME280;44940;55.060;73.168;2022-08-19T02:55:55;101298.59;;;9.94;92.31
59158;BME280;44940;55.060;73.168;2022-08-19T02:58:22;101299.22;;;9.99;92.03
59158;BME280;44940;55.060;73.168;2022-08-19T03:00:52;101291.13;;;9.86;92.44
59158;BME280;44940;55.060;73.168;2022-08-19T03:03:21;101294.53;;;9.91;92.26
59158;BME280;44940;55.060;73.168;2022-08-19T03:05:48;101294.84;;;9.90;91.49
59158;BME280;44940;55.060;73.168;2022-08-19T03:08:16;101299.41;;;10.03;91.79
59158;BME280;44940;55.060;73.168;2022-08-19T03:10:45;101303.97;;;10.08;91.54
59158;BME280;44940;55.060;73.168;2022-08-19T03:13:14;101300.88;;;10.09;91.53
59158;BME280;44940;55.060;73.168;2022-08-19T03:15:42;101301.84;;;10.04;91.39
59158;BME280;44940;55.060;73.168;2022-08-19T03:18:10;101291.09;;;10.12;91.20
59158;BME280;44940;55.060;73.168;2022-08-19T03:20:42;101300.38;;;10.16;90.00
59158;BME280;44940;55.060;73.168;2022-08-19T03:23:10;101290.13;;;10.08;89.49
59158;BME280;44940;55.060;73.168;2022-08-19T03:25:39;101291.75;;;10.09;89.73
59158;BME280;44940;55.060;73.168;2022-08-19T03:28:09;101296.94;;;10.19;89.29
59158;BME280;44940;55.060;73.168;2022-08-19T03:30:36;101286.84;;;10.14;90.11
59158;BME280;44940;55.060;73.168;2022-08-19T03:33:03;101292.72;;;10.21;89.38
59158;BME280;44940;55.060;73.168;2022-08-19T03:35:30;101288.84;;;10.22;90.04
59158;BME280;44940;55.060;73.168;2022-08-19T03:37:59;101290.25;;;10.20;90.06
59158;BME280;44940;55.060;73.168;2022-08-19T03:40:26;101293.84;;;10.38;89.27
59158;BME280;44940;55.060;73.168;2022-08-19T03:42:53;101296.94;;;10.45;88.75
59158;BME280;44940;55.060;73.168;2022-08-19T03:45:20;101297.59;;;10.42;88.58
59158;BME280;44940;55.060;73.168;2022-08-19T03:47:47;101286.03;;;10.40;87.70
59158;BME280;44940;55.060;73.168;2022-08-19T03:50:15;101295.31;;;10.44;87.70
59158;BME280;44940;55.060;73.168;2022-08-19T03:52:42;101282.09;;;10.41;88.37
59158;BME280;44940;55.060;73.168;2022-08-19T03:55:10;101287.97;;;10.48;87.12
59158;BME280;44940;55.060;73.168;2022-08-19T03:57:37;101290.88;;;10.51;87.53
59158;BME280;44940;55.060;73.168;2022-08-19T04:00:06;101288.94;;;10.60;87.56
59158;BME280;44940;55.060;73.168;2022-08-19T04:02:34;101287.59;;;10.58;87.06
59158;BME280;44940;55.060;73.168;2022-08-19T04:05:01;101289.22;;;10.59;87.58
59158;BME280;44940;55.060;73.168;2022-08-19T04:07:28;101275.97;;;10.73;86.80
59158;BME280;44940;55.060;73.168;2022-08-19T04:09:55;101276.59;;;10.79;84.88
59158;BME280;44940;55.060;73.168;2022-08-19T04:12:23;101280.31;;;10.91;85.14
59158;BME280;44940;55.060;73.168;2022-08-19T04:14:50;101283.00;;;11.09;85.20
59158;BME280;44940;55.060;73.168;2022-08-19T04:17:17;101277.75;;;11.16;84.24
59158;BME280;44940;55.060;73.168;2022-08-19T04:19:44;101279.91;;;11.10;83.12
59158;BME280;44940;55.060;73.168;2022-08-19T04:22:11;101277.09;;;11.19;83.60
59158;BME280;44940;55.060;73.168;2022-08-19T04:24:39;101282.72;;;11.31;83.22
59158;BME280;44940;55.060;73.168;2022-08-19T04:27:06;101275.53;;;11.30;82.08
59158;BME280;44940;55.060;73.168;2022-08-19T04:29:34;101282.84;;;11.35;81.81
59158;BME280;44940;55.060;73.168;2022-08-19T04:32:02;101264.44;;;11.30;81.56
59158;BME280;44940;55.060;73.168;2022-08-19T04:34:29;101278.69;;;11.49;80.87
59158;BME280;44940;55.060;73.168;2022-08-19T04:36:58;101282.00;;;11.64;79.83
59158;BME280;44940;55.060;73.168;2022-08-19T04:39:27;101280.59;;;11.58;80.40
59158;BME280;44940;55.060;73.168;2022-08-19T04:42:14;101279.97;;;11.73;78.29
59158;BME280;44940;55.060;73.168;2022-08-19T04:45:02;101284.34;;;11.82;77.97
59158;BME280;44940;55.060;73.168;2022-08-19T04:47:30;101280.06;;;11.85;79.01
59158;BME280;44940;55.060;73.168;2022-08-19T04:49:59;101282.13;;;11.97;78.26
59158;BME280;44940;55.060;73.168;2022-08-19T04:52:26;101271.47;;;11.99;78.26
59158;BME280;44940;55.060;73.168;2022-08-19T04:54:53;101267.66;;;12.03;77.26
59158;BME280;44940;55.060;73.168;2022-08-19T04:57:21;101270.63;;;12.19;75.33
59158;BME280;44940;55.060;73.168;2022-08-19T04:59:52;101261.31;;;12.36;75.38
59158;BME280;44940;55.060;73.168;2022-08-19T05:02:21;101275.94;;;12.57;75.13
59158;BME280;44940;55.060;73.168;2022-08-19T05:04:56;101268.75;;;12.56;73.85
59158;BME280;44940;55.060;73.168;2022-08-19T05:07:23;101263.81;;;12.74;72.49
59158;BME280;44940;55.060;73.168;2022-08-19T05:09:50;101255.09;;;12.63;72.64
59158;BME280;44940;55.060;73.168;2022-08-19T05:12:18;101265.84;;;12.53;72.96
59158;BME280;44940;55.060;73.168;2022-08-19T05:14:45;101262.41;;;12.56;73.46
59158;BME280;44940;55.060;73.168;2022-08-19T05:17:14;101256.50;;;12.69;74.16
59158;BME280;44940;55.060;73.168;2022-08-19T05:19:42;101250.72;;;12.87;72.89
59158;BME280;44940;55.060;73.168;2022-08-19T05:22:28;101260.47;;;13.05;72.50
59158;BME280;44940;55.060;73.168;2022-08-19T05:25:07;101247.25;;;13.02;72.24
59158;BME280;44940;55.060;73.168;2022-08-19T05:27:34;101254.22;;;13.20;71.39
59158;BME280;44940;55.060;73.168;2022-08-19T05:30:02;101238.91;;;13.26;70.64
59158;BME280;44940;55.060;73.168;2022-08-19T05:32:30;101252.00;;;13.26;71.02
59158;BME280;44940;55.060;73.168;2022-08-19T05:34:58;101249.09;;;13.10;70.41
59158;BME280;44940;55.060;73.168;2022-08-19T05:37:25;101240.28;;;13.08;70.97
59158;BME280;44940;55.060;73.168;2022-08-19T05:39:54;101247.16;;;13.23;70.01
59158;BME280;44940;55.060;73.168;2022-08-19T05:42:22;101243.31;;;13.15;70.17
59158;BME280;44940;55.060;73.168;2022-08-19T05:44:50;101234.28;;;13.18;69.11
59158;BME280;44940;55.060;73.168;2022-08-19T05:47:17;101230.81;;;13.33;71.39
59158;BME280;44940;55.060;73.168;2022-08-19T05:49:46;101232.16;;;13.52;70.80
59158;BME280;44940;55.060;73.168;2022-08-19T05:52:15;101220.16;;;13.63;69.88
59158;BME280;44940;55.060;73.168;2022-08-19T05:54:42;101220.94;;;13.76;69.05
59158;BME280;44940;55.060;73.168;2022-08-19T05:57:09;101231.03;;;14.09;68.85
59158;BME280;44940;55.060;73.168;2022-08-19T05:59:37;101202.34;;;14.24;67.55
59158;BME280;44940;55.060;73.168;2022-08-19T06:02:05;101220.84;;;14.60;66.28
59158;BME280;44940;55.060;73.168;2022-08-19T06:04:33;101215.38;;;14.64;66.07
59158;BME280;44940;55.060;73.168;2022-08-19T06:07:00;101223.03;;;14.67;65.00
59158;BME280;44940;55.060;73.168;2022-08-19T06:09:30;101215.03;;;14.49;64.41
59158;BME280;44940;55.060;73.168;2022-08-19T06:11:58;101216.31;;;14.40;64.71
59158;BME280;44940;55.060;73.168;2022-08-19T06:14:29;71117.31;;;-144.94;100.00
59158;BME280;44940;55.060;73.168;2022-08-19T06:16:56;101202.13;;;14.45;64.93
59158;BME280;44940;55.060;73.168;2022-08-19T06:19:24;101214.03;;;14.73;65.30
59158;BME280;44940;55.060;73.168;2022-08-19T06:21:52;71117.31;;;-144.94;100.00
59158;BME280;44940;55.060;73.168;2022-08-19T06:24:22;101214.03;;;14.73;65.30
59158;BME280;44940;55.060;73.168;2022-08-19T06:26:54;101214.03;;;14.73;65.30
59158;BME280;44940;55.060;73.168;2022-08-19T06:29:24;101205.41;;;15.13;64.31
59158;BME280;44940;55.060;73.168;2022-08-19T06:31:54;101205.16;;;15.03;65.80
59158;BME280;44940;55.060;73.168;2022-08-19T06:34:23;71117.31;;;-144.94;100.00
59158;BME280;44940;55.060;73.168;2022-08-19T06:36:51;71117.31;;;-144.94;100.00
59158;BME280;44940;55.060;73.168;2022-08-19T06:39:21;71117.31;;;-144.94;100.00
59158;BME280;44940;55.060;73.168;2022-08-19T06:41:50;71117.31;;;-144.94;100.00
59158;BME280;44940;55.060;73.168;2022-08-19T06:44:20;71117.31;;;-144.94;100.00
59158;BME280;44940;55.060;73.168;2022-08-19T06:46:48;71117.31;;;-144.94;100.00
59158;BME280;44940;55.060;73.168;2022-08-19T06:49:16;101187.78;;;14.15;66.71
59158;BME280;44940;55.060;73.168;2022-08-19T06:51:44;101168.44;;;13.90;67.26
59158;BME280;44940;55.060;73.168;2022-08-19T06:54:14;101181.84;;;14.01;67.21
59158;BME280;44940;55.060;73.168;2022-08-19T06:56:41;101179.00;;;13.85;68.52
59158;BME280;44940;55.060;73.168;2022-08-19T06:59:11;101184.47;;;13.81;68.03
59158;BME280;44940;55.060;73.168;2022-08-19T07:01:42;101182.91;;;13.68;69.64
59158;BME280;44940;55.060;73.168;2022-08-19T07:04:14;101189.25;;;13.53;70.54
59158;BME280;44940;55.060;73.168;2022-08-19T07:06:42;101179.50;;;13.47;71.24
59158;BME280;44940;55.060;73.168;2022-08-19T07:09:10;101173.19;;;13.22;71.95
59158;BME280;44940;55.060;73.168;2022-08-19T07:11:37;101187.66;;;13.27;72.60
59158;BME280;44940;55.060;73.168;2022-08-19T07:14:04;101181.09;;;13.20;72.62
59158;BME280;44940;55.060;73.168;2022-08-19T07:16:33;101188.84;;;13.26;73.20
59158;BME280;44940;55.060;73.168;2022-08-19T07:19:01;101190.00;;;13.25;73.75
59158;BME280;44940;55.060;73.168;2022-08-19T07:21:28;101181.53;;;13.34;73.11
59158;BME280;44940;55.060;73.168;2022-08-19T07:23:56;101181.28;;;13.39;73.59
59158;BME280;44940;55.060;73.168;2022-08-19T07:26:26;101190.34;;;13.36;74.29
59158;BME280;44940;55.060;73.168;2022-08-19T07:28:54;101189.97;;;13.38;74.14
59158;BME280;44940;55.060;73.168;2022-08-19T07:31:23;101186.94;;;13.43;74.40
59158;BME280;44940;55.060;73.168;2022-08-19T07:33:51;101192.75;;;13.50;73.23
59158;BME280;44940;55.060;73.168;2022-08-19T07:36:23;101196.97;;;13.31;74.65
59158;BME280;44940;55.060;73.168;2022-08-19T07:38:51;101190.91;;;13.29;73.34
59158;BME280;44940;55.060;73.168;2022-08-19T07:41:22;101194.19;;;13.31;74.74
59158;BME280;44940;55.060;73.168;2022-08-19T07:43:50;101174.34;;;13.33;74.95
59158;BME280;44940;55.060;73.168;2022-08-19T07:46:18;101187.56;;;13.24;75.11
59158;BME280;44940;55.060;73.168;2022-08-19T07:48:52;101194.66;;;13.21;74.97
59158;BME280;44940;55.060;73.168;2022-08-19T07:51:21;101193.47;;;13.22;74.46
59158;BME280;44940;55.060;73.168;2022-08-19T07:53:48;101180.81;;;13.37;74.10
59158;BME280;44940;55.060;73.168;2022-08-19T07:56:18;101192.44;;;13.27;74.87
59158;BME280;44940;55.060;73.168;2022-08-19T07:58:48;101181.91;;;13.20;74.86
59158;BME280;44940;55.060;73.168;2022-08-19T08:01:18;101184.56;;;13.17;75.21
59158;BME280;44940;55.060;73.168;2022-08-19T08:03:46;101187.69;;;13.15;74.99
59158;BME280;44940;55.060;73.168;2022-08-19T08:06:34;101174.56;;;13.28;75.01
59158;BME280;44940;55.060;73.168;2022-08-19T08:09:22;101179.31;;;13.40;75.71
59158;BME280;44940;55.060;73.168;2022-08-19T08:11:51;101167.38;;;13.39;76.12
59158;BME280;44940;55.060;73.168;2022-08-19T08:14:21;101169.19;;;13.47;76.32
59158;BME280;44940;55.060;73.168;2022-08-19T08:16:51;101181.81;;;13.57;75.48
59158;BME280;44940;55.060;73.168;2022-08-19T08:19:20;101174.16;;;13.54;75.67
59158;BME280;44940;55.060;73.168;2022-08-19T08:21:49;101146.72;;;13.40;74.45
59158;BME280;44940;55.060;73.168;2022-08-19T08:24:17;101168.44;;;13.62;74.62
59158;BME280;44940;55.060;73.168;2022-08-19T08:26:44;101162.56;;;13.52;76.27
59158;BME280;44940;55.060;73.168;2022-08-19T08:29:12;101166.84;;;13.49;76.79
59158;BME280;44940;55.060;73.168;2022-08-19T08:31:40;101172.38;;;13.61;76.50
59158;BME280;44940;55.060;73.168;2022-08-19T08:34:08;101163.03;;;13.54;76.72
59158;BME280;44940;55.060;73.168;2022-08-19T08:36:37;101160.47;;;13.49;75.86
59158;BME280;44940;55.060;73.168;2022-08-19T08:39:10;101161.28;;;13.49;76.56
59158;BME280;44940;55.060;73.168;2022-08-19T08:41:44;101158.19;;;13.51;75.40
59158;BME280;44940;55.060;73.168;2022-08-19T08:44:17;101158.81;;;13.60;74.86
59158;BME280;44940;55.060;73.168;2022-08-19T08:46:47;101163.78;;;13.66;74.58
59158;BME280;44940;55.060;73.168;2022-08-19T08:49:24;101154.59;;;13.66;75.14
59158;BME280;44940;55.060;73.168;2022-08-19T08:52:00;101160.53;;;13.64;75.45
59158;BME280;44940;55.060;73.168;2022-08-19T08:54:33;101152.09;;;13.61;75.25
59158;BME280;44940;55.060;73.168;2022-08-19T08:57:04;101149.41;;;13.64;75.81
59158;BME280;44940;55.060;73.168;2022-08-19T08:59:36;101130.19;;;13.59;76.83
59158;BME280;44940;55.060;73.168;2022-08-19T09:02:04;101149.03;;;13.66;77.69
59158;BME280;44940;55.060;73.168;2022-08-19T09:04:31;101132.06;;;13.55;79.10
59158;BME280;44940;55.060;73.168;2022-08-19T09:07:12;101153.25;;;13.60;79.20
59158;BME280;44940;55.060;73.168;2022-08-19T09:09:46;101158.09;;;13.63;79.30
59158;BME280;44940;55.060;73.168;2022-08-19T09:12:19;101143.38;;;13.62;78.80
59158;BME280;44940;55.060;73.168;2022-08-19T09:14:53;101151.38;;;13.64;79.23
59158;BME280;44940;55.060;73.168;2022-08-19T09:17:25;101149.00;;;13.78;78.27
59158;BME280;44940;55.060;73.168;2022-08-19T09:20:04;101140.47;;;13.71;78.36
59158;BME280;44940;55.060;73.168;2022-08-19T09:22:35;101140.38;;;13.83;78.88
59158;BME280;44940;55.060;73.168;2022-08-19T09:25:06;101142.72;;;13.81;78.61
59158;BME280;44940;55.060;73.168;2022-08-19T09:27:33;101135.06;;;13.78;77.77
59158;BME280;44940;55.060;73.168;2022-08-19T09:30:02;101136.59;;;13.76;78.04
59158;BME280;44940;55.060;73.168;2022-08-19T09:32:29;101145.03;;;13.79;78.03
59158;BME280;44940;55.060;73.168;2022-08-19T09:34:57;101134.03;;;13.55;79.84
59158;BME280;44940;55.060;73.168;2022-08-19T09:37:24;101140.97;;;13.61;79.45
59158;BME280;44940;55.060;73.168;2022-08-19T09:39:52;101143.59;;;13.42;81.54
59158;BME280;44940;55.060;73.168;2022-08-19T09:42:21;101137.31;;;13.45;81.60
59158;BME280;44940;55.060;73.168;2022-08-19T09:44:47;101125.97;;;13.38;81.77
59158;BME280;44940;55.060;73.168;2022-08-19T09:47:14;101133.78;;;13.32;82.77
59158;BME280;44940;55.060;73.168;2022-08-19T09:49:42;101131.81;;;13.32;83.46
59158;BME280;44940;55.060;73.168;2022-08-19T09:52:10;101134.34;;;13.25;84.43
59158;BME280;44940;55.060;73.168;2022-08-19T09:54:37;101137.59;;;13.27;84.61
59158;BME280;44940;55.060;73.168;2022-08-19T09:57:05;101138.31;;;13.12;87.38
59158;BME280;44940;55.060;73.168;2022-08-19T09:59:34;101136.38;;;13.00;88.69
59158;BME280;44940;55.060;73.168;2022-08-19T10:02:02;101138.59;;;12.95;90.42
59158;BME280;44940;55.060;73.168;2022-08-19T10:04:29;101133.84;;;12.83;92.95
59158;BME280;44940;55.060;73.168;2022-08-19T10:07:15;101123.06;;;12.69;96.13
59158;BME280;44940;55.060;73.168;2022-08-19T10:09:42;101117.31;;;12.62;97.31
59158;BME280;44940;55.060;73.168;2022-08-19T10:12:09;101127.72;;;12.65;96.91
59158;BME280;44940;55.060;73.168;2022-08-19T10:14:37;101131.31;;;12.54;98.21
59158;BME280;44940;55.060;73.168;2022-08-19T10:17:05;101125.41;;;12.43;99.31
59158;BME280;44940;55.060;73.168;2022-08-19T10:19:32;101126.00;;;12.36;100.00
59158;BME280;44940;55.060;73.168;2022-08-19T10:22:03;101116.13;;;12.27;100.00
59158;BME280;44940;55.060;73.168;2022-08-19T10:24:31;101121.22;;;12.12;100.00
59158;BME280;44940;55.060;73.168;2022-08-19T10:26:59;101118.88;;;12.14;100.00
59158;BME280;44940;55.060;73.168;2022-08-19T10:29:26;101121.09;;;12.09;100.00
59158;BME280;44940;55.060;73.168;2022-08-19T10:31:56;101120.84;;;12.02;100.00
59158;BME280;44940;55.060;73.168;2022-08-19T10:34:24;101119.78;;;11.94;100.00
59158;BME280;44940;55.060;73.168;2022-08-19T10:36:51;101133.69;;;12.06;100.00
59158;BME280;44940;55.060;73.168;2022-08-19T10:39:18;101125.13;;;12.11;100.00
59158;BME280;44940;55.060;73.168;2022-08-19T10:41:45;101123.41;;;12.07;100.00
59158;BME280;44940;55.060;73.168;2022-08-19T10:44:13;101122.38;;;12.11;100.00
59158;BME280;44940;55.060;73.168;2022-08-19T10:46:42;101116.13;;;12.14;100.00
59158;BME280;44940;55.060;73.168;2022-08-19T10:49:15;101114.63;;;12.29;100.00
59158;BME280;44940;55.060;73.168;2022-08-19T10:51:42;101117.19;;;12.22;100.00
59158;BME280;44940;55.060;73.168;2022-08-19T10:54:28;101123.09;;;12.21;100.00
59158;BME280;44940;55.060;73.168;2022-08-19T10:57:15;101113.81;;;12.29;100.00
59158;BME280;44940;55.060;73.168;2022-08-19T10:59:42;101116.38;;;12.34;100.00
59158;BME280;44940;55.060;73.168;2022-08-19T11:02:10;101114.28;;;12.43;100.00
59158;BME280;44940;55.060;73.168;2022-08-19T11:04:40;101115.31;;;12.51;100.00
59158;BME280;44940;55.060;73.168;2022-08-19T11:07:08;101105.25;;;12.46;100.00
59158;BME280;44940;55.060;73.168;2022-08-19T11:09:39;101112.91;;;12.61;100.00
59158;BME280;44940;55.060;73.168;2022-08-19T11:12:07;101118.56;;;12.65;100.00
59158;BME280;44940;55.060;73.168;2022-08-19T11:14:35;101124.22;;;12.68;100.00
59158;BME280;44940;55.060;73.168;2022-08-19T11:17:03;101115.69;;;12.73;100.00
59158;BME280;44940;55.060;73.168;2022-08-19T11:19:31;101115.44;;;12.79;100.00
59158;BME280;44940;55.060;73.168;2022-08-19T11:22:01;101119.59;;;12.72;100.00
59158;BME280;44940;55.060;73.168;2022-08-19T11:24:31;101119.16;;;12.58;100.00
59158;BME280;44940;55.060;73.168;2022-08-19T11:27:02;101100.16;;;12.48;100.00
59158;BME280;44940;55.060;73.168;2022-08-19T11:29:31;101118.81;;;12.60;100.00
59158;BME280;44940;55.060;73.168;2022-08-19T11:31:58;101124.25;;;12.56;100.00
59158;BME280;44940;55.060;73.168;2022-08-19T11:34:28;101118.56;;;12.53;100.00
59158;BME280;44940;55.060;73.168;2022-08-19T11:36:56;101113.81;;;12.65;100.00
59158;BME280;44940;55.060;73.168;2022-08-19T11:39:30;101119.63;;;12.60;100.00
59158;BME280;44940;55.060;73.168;2022-08-19T11:41:58;101111.63;;;12.59;100.00
59158;BME280;44940;55.060;73.168;2022-08-19T11:44:26;101116.84;;;12.60;100.00
59158;BME280;44940;55.060;73.168;2022-08-19T11:46:53;101107.34;;;12.61;100.00
59158;BME280;44940;55.060;73.168;2022-08-19T11:49:21;101114.50;;;12.50;100.00
59158;BME280;44940;55.060;73.168;2022-08-19T11:51:48;101121.81;;;12.42;100.00
59158;BME280;44940;55.060;73.168;2022-08-19T11:54:17;101113.59;;;12.46;100.00
59158;BME280;44940;55.060;73.168;2022-08-19T11:56:46;101109.66;;;12.47;100.00
59158;BME280;44940;55.060;73.168;2022-08-19T11:59:14;101101.91;;;12.40;100.00
59158;BME280;44940;55.060;73.168;2022-08-19T12:01:42;101110.00;;;12.45;100.00
59158;BME280;44940;55.060;73.168;2022-08-19T12:04:10;101102.94;;;12.48;100.00
59158;BME280;44940;55.060;73.168;2022-08-19T12:06:39;101108.75;;;12.55;100.00
59158;BME280;44940;55.060;73.168;2022-08-19T12:09:07;101105.72;;;12.60;100.00
59158;BME280;44940;55.060;73.168;2022-08-19T12:11:38;101109.31;;;12.61;100.00
59158;BME280;44940;55.060;73.168;2022-08-19T12:14:10;101104.66;;;12.65;100.00
59158;BME280;44940;55.060;73.168;2022-08-19T12:16:37;101111.50;;;12.67;100.00
59158;BME280;44940;55.060;73.168;2022-08-19T12:19:04;101098.06;;;12.69;100.00
59158;BME280;44940;55.060;73.168;2022-08-19T12:21:33;101108.25;;;12.77;100.00
59158;BME280;44940;55.060;73.168;2022-08-19T12:24:02;101105.47;;;12.77;100.00
59158;BME280;44940;55.060;73.168;2022-08-19T12:26:30;101102.91;;;12.72;100.00
59158;BME280;44940;55.060;73.168;2022-08-19T12:28:58;101098.75;;;12.79;100.00
59158;BME280;44940;55.060;73.168;2022-08-19T12:31:27;101108.47;;;12.85;100.00
59158;BME280;44940;55.060;73.168;2022-08-19T12:33:55;101094.22;;;12.86;100.00
59158;BME280;44940;55.060;73.168;2022-08-19T12:36:23;101096.75;;;12.91;100.00
59158;BME280;44940;55.060;73.168;2022-08-19T12:38:51;101097.44;;;12.88;100.00
59158;BME280;44940;55.060;73.168;2022-08-19T12:41:19;101088.75;;;12.90;100.00
59158;BME280;44940;55.060;73.168;2022-08-19T12:43:49;101089.00;;;12.85;100.00
59158;BME280;44940;55.060;73.168;2022-08-19T12:46:17;101102.09;;;12.96;100.00
59158;BME280;44940;55.060;73.168;2022-08-19T12:48:46;101087.81;;;12.98;100.00
59158;BME280;44940;55.060;73.168;2022-08-19T12:51:16;101093.13;;;13.03;100.00